createdAt,value
2022-12-22T00:01:14.023Z,99619.65
2022-12-22T00:03:59.002Z,99618.45
2022-12-22T00:06:43.716Z,99615.36
2022-12-22T00:09:28.228Z,99611.41
2022-12-22T00:12:12.854Z,99611.19
2022-12-22T00:14:57.807Z,99604.11
2022-12-22T00:17:46.775Z,99600.81
2022-12-22T00:20:37.088Z,99597.02
2022-12-22T00:23:22.291Z,99593.77
2022-12-22T00:26:07.680Z,99592.74
2022-12-22T00:28:54.232Z,99585.58
2022-12-22T00:31:39.569Z,99580.23
2022-12-22T00:34:29.330Z,99585.03
2022-12-22T00:37:17.356Z,99589.46
2022-12-22T00:40:02.882Z,99586.86
2022-12-22T00:42:48.439Z,99586.51
2022-12-22T00:45:33.399Z,99582.55
2022-12-22T00:48:18.818Z,99575.86
2022-12-22T00:51:03.956Z,99582.38
2022-12-22T00:53:48.484Z,99577.71
2022-12-22T00:56:33.685Z,99576.52
2022-12-22T00:59:20.475Z,99581.84
2022-12-22T01:02:05.492Z,99583.20
2022-12-22T01:04:51.033Z,99581.10
2022-12-22T01:07:37.589Z,99583.00
2022-12-22T01:10:23.058Z,99581.64
2022-12-22T01:13:07.457Z,99578.21
2022-12-22T01:15:52.245Z,99580.42
2022-12-22T01:18:37.102Z,99577.70
2022-12-22T01:21:22.251Z,99580.45
2022-12-22T01:24:07.476Z,99582.54
2022-12-22T01:26:52.165Z,99582.19
2022-12-22T01:29:36.901Z,99576.87
2022-12-22T01:32:21.770Z,99572.06
2022-12-22T01:35:06.398Z,99568.61
2022-12-22T01:37:50.917Z,99570.16
2022-12-22T01:40:38.270Z,99578.55
2022-12-22T01:43:21.723Z,99576.34
2022-12-22T01:46:06.482Z,99569.45
2022-12-22T01:48:52.439Z,99572.86
2022-12-22T01:51:41.900Z,99571.85
2022-12-22T01:54:28.297Z,99569.83
2022-12-22T01:57:12.902Z,99564.71
2022-12-22T01:59:58.109Z,99564.91
2022-12-22T02:02:45.510Z,99558.80
2022-12-22T02:05:33.662Z,99560.20
2022-12-22T02:08:29.048Z,99557.49
2022-12-22T02:11:27.302Z,99556.84
2022-12-22T02:14:29.605Z,99559.06
2022-12-22T02:17:19.492Z,99557.22
2022-12-22T02:20:25.632Z,99559.66
2022-12-22T02:23:19.390Z,99570.11
2022-12-22T02:26:10.244Z,99567.72
2022-12-22T02:28:55.518Z,99566.52
2022-12-22T02:31:40.674Z,99569.06
2022-12-22T02:34:33.906Z,99566.95
2022-12-22T02:37:28.331Z,99573.48
2022-12-22T02:40:20.244Z,99572.44
2022-12-22T02:43:13.522Z,99580.81
2022-12-22T02:46:08.507Z,99582.34
2022-12-22T02:49:01.208Z,99582.49
2022-12-22T02:51:50.262Z,99578.19
2022-12-22T02:54:36.673Z,99578.19
2022-12-22T02:57:25.174Z,99574.39
2022-12-22T03:00:09.863Z,99577.79
2022-12-22T03:02:54.955Z,99581.73
2022-12-22T03:05:40.271Z,99575.18
2022-12-22T03:08:25.392Z,99573.80
2022-12-22T03:11:10.325Z,99571.56
2022-12-22T03:13:54.959Z,99572.41
2022-12-22T03:16:40.604Z,99573.45
2022-12-22T03:19:25.504Z,99571.04
2022-12-22T03:22:10.306Z,99574.12
2022-12-22T03:24:55.475Z,99572.38
2022-12-22T03:27:22.608Z,99571.68
2022-12-22T03:29:49.631Z,99573.55
2022-12-22T03:32:17.320Z,99572.66
2022-12-22T03:34:44.343Z,99563.89
2022-12-22T03:37:11.249Z,99563.05
2022-12-22T03:39:38.361Z,99565.11
2022-12-22T03:42:22.978Z,99570.39
2022-12-22T03:45:07.877Z,99575.52
2022-12-22T03:47:35.239Z,99572.41
2022-12-22T03:50:03.955Z,99568.44
2022-12-22T03:52:30.978Z,99565.34
2022-12-22T03:54:57.861Z,99562.73
2022-12-22T03:57:25.271Z,99563.08
2022-12-22T03:59:52.297Z,99555.70
2022-12-22T04:02:19.506Z,99553.45
2022-12-22T04:04:46.800Z,99552.58
2022-12-22T04:07:13.946Z,99552.02
2022-12-22T04:10:01.596Z,99546.48
2022-12-22T04:12:46.237Z,99537.41
2022-12-22T04:15:14.193Z,99535.17
2022-12-22T04:17:41.103Z,99538.41
2022-12-22T04:20:10.157Z,99539.06
2022-12-22T04:22:37.448Z,99540.92
2022-12-22T04:25:04.876Z,99539.73
2022-12-22T04:27:31.905Z,99538.16
2022-12-22T04:29:59.370Z,99533.86
2022-12-22T04:32:26.344Z,99530.23
2022-12-22T04:34:53.254Z,99527.34
2022-12-22T04:37:20.244Z,99520.96
2022-12-22T04:39:47.436Z,99523.52
2022-12-22T04:42:14.560Z,99518.88
2022-12-22T04:44:41.570Z,99521.80
2022-12-22T04:47:08.621Z,99518.02
2022-12-22T04:49:36.041Z,99520.73
2022-12-22T04:52:02.973Z,99522.10
2022-12-22T04:54:30.111Z,99523.98
2022-12-22T04:56:57.039Z,99516.58
2022-12-22T04:59:24.592Z,99513.94
2022-12-22T05:01:51.807Z,99508.23
2022-12-22T05:04:23.708Z,99507.17
2022-12-22T05:06:51.271Z,99505.96
2022-12-22T05:09:19.788Z,99506.48
2022-12-22T05:11:46.755Z,99511.41
2022-12-22T05:14:14.035Z,99507.09
2022-12-22T05:16:41.606Z,99512.55
2022-12-22T05:19:08.760Z,99503.27
2022-12-22T05:21:36.034Z,99506.37
2022-12-22T05:24:03.007Z,99504.36
2022-12-22T05:26:30.443Z,99506.10
2022-12-22T05:28:57.829Z,99500.48
2022-12-22T05:31:26.582Z,99494.11
2022-12-22T05:33:54.110Z,99496.86
2022-12-22T05:36:22.046Z,99499.08
2022-12-22T05:38:48.984Z,99497.86
2022-12-22T05:41:15.997Z,99501.27
2022-12-22T05:43:43.040Z,99501.79
2022-12-22T05:46:12.472Z,99496.79
2022-12-22T05:48:40.404Z,99490.92
2022-12-22T05:51:08.785Z,99497.07
2022-12-22T05:53:36.083Z,99494.00
2022-12-22T05:56:03.058Z,99498.85
2022-12-22T05:58:30.127Z,99502.61
2022-12-22T06:01:00.491Z,99502.95
2022-12-22T06:03:28.114Z,99505.46
2022-12-22T06:05:55.908Z,99508.35
2022-12-22T06:08:22.968Z,99515.21
2022-12-22T06:10:49.930Z,99515.38
2022-12-22T06:13:16.979Z,99521.69
2022-12-22T06:15:44.201Z,99521.68
2022-12-22T06:18:11.231Z,99521.01
2022-12-22T06:20:38.239Z,99522.73
2022-12-22T06:23:05.546Z,99524.98
2022-12-22T06:25:32.455Z,99524.31
2022-12-22T06:27:59.705Z,99530.17
2022-12-22T06:30:32.940Z,99530.20
2022-12-22T06:33:02.646Z,99530.23
2022-12-22T06:35:29.836Z,99529.75
2022-12-22T06:37:56.844Z,99531.46
2022-12-22T06:40:24.638Z,99536.14
2022-12-22T06:43:10.942Z,99540.45
2022-12-22T06:45:39.224Z,99540.11
2022-12-22T06:48:06.813Z,99538.23
2022-12-22T06:50:34.213Z,99539.60
2022-12-22T06:53:02.024Z,99538.90
2022-12-22T06:55:29.137Z,99539.40
2022-12-22T06:57:56.109Z,99541.10
2022-12-22T07:00:25.061Z,99541.23
2022-12-22T07:02:52.350Z,99542.38
2022-12-22T07:05:19.965Z,99536.67
2022-12-22T07:07:47.219Z,99539.02
2022-12-22T07:10:15.258Z,99535.56
2022-12-22T07:12:42.338Z,99533.69
2022-12-22T07:15:11.468Z,99536.42
2022-12-22T07:17:38.736Z,99539.17
2022-12-22T07:20:08.519Z,99541.25
2022-12-22T07:22:35.811Z,99534.73
2022-12-22T07:25:02.735Z,99529.58
2022-12-22T07:27:30.229Z,99525.81
2022-12-22T07:29:57.869Z,99520.31
2022-12-22T07:32:24.814Z,99511.88
2022-12-22T07:34:51.859Z,99503.98
2022-12-22T07:37:19.053Z,99501.23
2022-12-22T07:39:46.119Z,99503.46
2022-12-22T07:42:31.367Z,99511.05
2022-12-22T07:44:58.768Z,99506.09
2022-12-22T07:47:30.043Z,99504.39
2022-12-22T07:50:18.029Z,99508.52
2022-12-22T07:52:45.055Z,99506.96
2022-12-22T07:55:12.901Z,99508.67
2022-12-22T07:57:40.969Z,99507.02
2022-12-22T08:00:10.995Z,99504.08
2022-12-22T08:02:41.004Z,99496.67
2022-12-22T08:05:10.193Z,99492.92
2022-12-22T08:07:38.717Z,99485.68
2022-12-22T08:10:09.087Z,99487.40
2022-12-22T08:12:36.406Z,99476.79
2022-12-22T08:15:03.452Z,99480.02
2022-12-22T08:17:30.800Z,99471.14
2022-12-22T08:19:57.974Z,99470.66
2022-12-22T08:22:25.676Z,99468.27
2022-12-22T08:24:52.780Z,99467.38
2022-12-22T08:27:26.338Z,99463.20
2022-12-22T08:29:58.212Z,99467.21
2022-12-22T08:32:25.782Z,99462.70
2022-12-22T08:34:54.177Z,99458.19
2022-12-22T08:37:26.415Z,99458.31
2022-12-22T08:39:59.022Z,99456.34
2022-12-22T08:42:27.516Z,99454.10
2022-12-22T08:44:54.941Z,99460.21
2022-12-22T08:47:22.519Z,99455.14
2022-12-22T08:49:50.150Z,99458.39
2022-12-22T08:52:19.276Z,99453.80
2022-12-22T08:54:46.875Z,99447.11
2022-12-22T08:57:14.042Z,99449.77
2022-12-22T08:59:41.087Z,99449.63
2022-12-22T09:02:08.526Z,99439.35
2022-12-22T09:04:36.832Z,99441.58
2022-12-22T09:07:08.110Z,99447.02
2022-12-22T09:09:36.588Z,99452.91
2022-12-22T09:12:05.659Z,99457.38
2022-12-22T09:14:35.423Z,99457.97
2022-12-22T09:17:02.620Z,99463.77
2022-12-22T09:19:32.948Z,99460.88
2022-12-22T09:21:59.942Z,99457.42
2022-12-22T09:24:27.431Z,99458.20
2022-12-22T09:26:55.318Z,99453.89
2022-12-22T09:29:22.977Z,99449.89
2022-12-22T09:31:50.429Z,99446.25
2022-12-22T09:34:18.910Z,99446.30
2022-12-22T09:36:48.664Z,99443.73
2022-12-22T09:39:19.930Z,99444.58
2022-12-22T09:41:51.967Z,99434.94
2022-12-22T09:44:26.986Z,99428.52
2022-12-22T09:46:56.917Z,99423.00
2022-12-22T09:49:24.789Z,99422.62
2022-12-22T09:51:54.510Z,99424.01
2022-12-22T09:54:22.418Z,99418.90
2022-12-22T09:56:49.533Z,99419.14
2022-12-22T09:59:19.054Z,99409.52
2022-12-22T10:02:03.946Z,99405.94
2022-12-22T10:04:46.089Z,99399.85
2022-12-22T10:07:25.627Z,99397.84
2022-12-22T10:09:52.966Z,99395.17
2022-12-22T10:12:23.051Z,99394.40
2022-12-22T10:14:51.620Z,99383.76
2022-12-22T10:17:21.718Z,99383.74
2022-12-22T10:19:50.560Z,99381.98
2022-12-22T10:22:36.051Z,99381.38
2022-12-22T10:25:07.246Z,99372.65
2022-12-22T10:27:42.916Z,99365.81
2022-12-22T10:30:24.724Z,99357.54
2022-12-22T10:33:09.639Z,99367.41
2022-12-22T10:35:47.198Z,99354.53
2022-12-22T10:38:21.591Z,99355.39
2022-12-22T10:40:53.075Z,99350.41
2022-12-22T10:43:27.887Z,99347.69
2022-12-22T10:45:57.484Z,99347.05
2022-12-22T10:48:35.259Z,99343.30
2022-12-22T10:51:03.400Z,99338.34
2022-12-22T10:53:44.973Z,99328.57
2022-12-22T10:56:22.932Z,99326.76
2022-12-22T10:58:55.640Z,99318.10
2022-12-22T11:01:32.341Z,99315.23
2022-12-22T11:04:15.932Z,99310.16
2022-12-22T11:06:44.349Z,99303.39
2022-12-22T11:09:32.469Z,99295.72
2022-12-22T11:12:07.917Z,99300.42
2022-12-22T11:14:50.641Z,99299.94
2022-12-22T11:17:24.266Z,99299.02
2022-12-22T11:20:05.002Z,99301.41
2022-12-22T11:22:41.194Z,99294.48
2022-12-22T11:25:30.262Z,99291.67
2022-12-22T11:28:10.296Z,99295.89
2022-12-22T11:30:50.172Z,99290.33
2022-12-22T11:33:32.851Z,99283.24
2022-12-22T11:36:04.968Z,99267.70
2022-12-22T11:38:49.992Z,99267.75
2022-12-22T11:41:31.904Z,99266.27
2022-12-22T11:44:16.578Z,99251.16
2022-12-22T11:46:49.513Z,99260.33
2022-12-22T11:49:49.562Z,99253.31
2022-12-22T11:52:35.981Z,99245.95
2022-12-22T11:55:18.540Z,99243.09
2022-12-22T11:58:04.563Z,99242.77
2022-12-22T12:01:12.671Z,99244.56
2022-12-22T12:03:52.289Z,99245.00
2022-12-22T12:06:34.480Z,99245.02
2022-12-22T12:09:15.306Z,99252.58
2022-12-22T12:11:51.568Z,99247.11
2022-12-22T12:14:28.007Z,99232.36
2022-12-22T12:17:00.612Z,99233.06
2022-12-22T12:19:55.639Z,99229.45
2022-12-22T12:22:34.714Z,99226.14
2022-12-22T12:25:13.245Z,99229.02
2022-12-22T12:27:55.340Z,99229.37
2022-12-22T12:30:39.852Z,99233.34
2022-12-22T12:33:15.763Z,99231.42
2022-12-22T12:35:52.671Z,99216.19
2022-12-22T12:41:27.123Z,99204.75
2022-12-22T12:43:55.671Z,99208.23
2022-12-22T12:46:55.238Z,99204.95
2022-12-22T12:49:56.747Z,99199.92
2022-12-22T12:53:16.723Z,99197.05
2022-12-22T12:55:58.350Z,99200.20
2022-12-22T12:58:54.728Z,99205.07
2022-12-22T13:01:57.159Z,99202.33
2022-12-22T13:05:12.331Z,99204.90
2022-12-22T13:08:16.039Z,99208.07
2022-12-22T13:10:46.979Z,99207.96
2022-12-22T13:13:36.353Z,99206.15
2022-12-22T13:16:29.164Z,99208.23
2022-12-22T13:19:00.193Z,99220.63
2022-12-22T13:21:54.871Z,99218.88
2022-12-22T13:24:29.997Z,99217.27
2022-12-22T13:27:02.719Z,99210.50
2022-12-22T13:29:42.256Z,99203.09
2022-12-22T13:32:21.618Z,99202.16
2022-12-22T13:37:46.795Z,99195.41
2022-12-22T13:40:17.943Z,99197.27
2022-12-22T13:42:49.180Z,99198.65
2022-12-22T13:45:27.571Z,99195.39
2022-12-22T13:47:55.703Z,99188.34
2022-12-22T13:50:27.739Z,99191.63
2022-12-22T13:52:57.361Z,99189.75
2022-12-22T13:55:28.979Z,99181.03
2022-12-22T13:57:58.882Z,99183.96
2022-12-22T14:00:29.818Z,99184.48
2022-12-22T14:02:57.172Z,99179.11
2022-12-22T14:05:30.955Z,99172.90
2022-12-22T14:08:04.063Z,99171.30
2022-12-22T14:10:34.602Z,99155.33
2022-12-22T14:13:02.647Z,99152.70
2022-12-22T14:15:29.811Z,99146.30
2022-12-22T14:17:56.948Z,99137.67
2022-12-22T14:20:28.726Z,99147.25
2022-12-22T14:23:02.363Z,99139.62
2022-12-22T14:25:33.127Z,99134.06
2022-12-22T14:28:01.200Z,99131.78
2022-12-22T14:30:38.028Z,99127.13
2022-12-22T14:33:28.626Z,99127.45
2022-12-22T14:36:07.703Z,99128.30
2022-12-22T14:38:43.494Z,99126.04
2022-12-22T14:41:41.034Z,99123.77
2022-12-22T14:44:13.337Z,99122.19
2022-12-22T14:46:41.137Z,99117.38
2022-12-22T14:49:13.615Z,99111.51
2022-12-22T14:51:40.800Z,99114.06
2022-12-22T14:54:08.345Z,99116.11
2022-12-22T14:56:35.616Z,99120.88
2022-12-22T14:59:23.171Z,99125.63
2022-12-22T15:02:02.131Z,99127.29
2022-12-22T15:04:30.921Z,99122.44
2022-12-22T15:07:10.180Z,99121.20
2022-12-22T15:10:14.433Z,99114.66
2022-12-22T15:12:34.002Z,99106.08
2022-12-22T15:15:03.417Z,99107.99
2022-12-22T15:17:30.974Z,99104.75
2022-12-22T15:20:00.436Z,99105.16
2022-12-22T15:22:27.710Z,99097.66
2022-12-22T15:24:54.717Z,99099.27
2022-12-22T15:27:22.267Z,99100.04
2022-12-22T15:29:49.938Z,99102.48
2022-12-22T15:32:17.252Z,99100.48
2022-12-22T15:34:44.817Z,99101.02
2022-12-22T15:37:14.753Z,99090.39
2022-12-22T15:39:41.868Z,99088.55
2022-12-22T15:42:09.206Z,99089.95
2022-12-22T15:44:39.015Z,99093.77
2022-12-22T15:47:07.467Z,99094.48
2022-12-22T15:49:34.663Z,99090.21
2022-12-22T15:52:04.346Z,99081.11
2022-12-22T15:54:33.666Z,99078.72
2022-12-22T15:57:02.551Z,99078.05
2022-12-22T15:59:31.229Z,99080.11
2022-12-22T16:02:01.889Z,99077.04
2022-12-22T16:04:30.393Z,99079.77
2022-12-22T16:06:57.995Z,99076.32
2022-12-22T16:09:29.062Z,99067.88
2022-12-22T16:11:56.311Z,99055.30
2022-12-22T16:14:24.280Z,99048.58
2022-12-22T16:16:51.601Z,99047.91
2022-12-22T16:19:20.412Z,99044.13
2022-12-22T16:21:49.089Z,99044.13
2022-12-22T16:24:26.840Z,99039.16
2022-12-22T16:26:56.889Z,99043.30
2022-12-22T16:29:24.262Z,99038.17
2022-12-22T16:31:51.432Z,99045.90
2022-12-22T16:34:18.697Z,99036.63
2022-12-22T16:36:47.466Z,99034.56
2022-12-22T16:39:14.609Z,99036.95
2022-12-22T16:41:42.163Z,99039.02
2022-12-22T16:46:57.448Z,99036.34
2022-12-22T16:49:27.113Z,99035.61
2022-12-22T16:51:55.996Z,99033.55
2022-12-22T16:54:23.325Z,99032.98
2022-12-22T16:56:52.100Z,99032.14
2022-12-22T16:59:19.233Z,99035.70
2022-12-22T17:01:51.003Z,99033.27
2022-12-22T17:04:22.663Z,99033.22
2022-12-22T17:06:51.904Z,99029.73
2022-12-22T17:09:24.224Z,99029.02
2022-12-22T17:11:51.499Z,99025.39
2022-12-22T17:14:28.517Z,99022.98
2022-12-22T17:16:55.720Z,99014.05
2022-12-22T17:19:23.019Z,99013.69
2022-12-22T17:21:51.026Z,99013.66
2022-12-22T17:24:25.950Z,99005.77
2022-12-22T17:26:55.829Z,99007.48
2022-12-22T17:29:25.785Z,99004.41
2022-12-22T17:31:56.812Z,99005.78
2022-12-22T17:34:25.327Z,98999.57
2022-12-22T17:36:52.610Z,99004.70
2022-12-22T17:39:22.925Z,99007.77
2022-12-22T17:41:56.425Z,99003.79
2022-12-22T17:44:27.170Z,99002.03
2022-12-22T17:46:54.700Z,98999.58
2022-12-22T17:49:22.583Z,98999.33
2022-12-22T17:51:50.195Z,98999.45
2022-12-22T17:54:25.260Z,98995.25
2022-12-22T17:56:52.884Z,98994.13
2022-12-22T17:59:22.193Z,98990.98
2022-12-22T18:02:08.928Z,98989.67
2022-12-22T18:04:36.448Z,98989.94
2022-12-22T18:07:03.526Z,98989.69
2022-12-22T18:09:30.540Z,98986.70
2022-12-22T18:11:57.975Z,98981.51
2022-12-22T18:14:25.577Z,98978.14
2022-12-22T18:16:52.799Z,98973.20
2022-12-22T18:19:20.058Z,98970.52
2022-12-22T18:21:47.200Z,98972.48
2022-12-22T18:24:18.453Z,98966.19
2022-12-22T18:26:47.102Z,98967.81
2022-12-22T18:29:17.693Z,98970.15
2022-12-22T18:31:45.022Z,98966.63
2022-12-22T18:34:12.525Z,98965.17
2022-12-22T18:36:42.595Z,98966.49
2022-12-22T18:39:17.637Z,98958.88
2022-12-22T18:41:44.890Z,98960.34
2022-12-22T18:44:16.404Z,98960.10
2022-12-22T18:46:43.625Z,98956.96
2022-12-22T18:49:10.768Z,98958.45
2022-12-22T18:51:37.876Z,98959.63
2022-12-22T18:54:05.309Z,98957.16
2022-12-22T18:56:32.475Z,98960.17
2022-12-22T18:58:59.713Z,98959.11
2022-12-22T19:01:29.582Z,98959.74
2022-12-22T19:03:58.960Z,98954.36
2022-12-22T19:06:26.531Z,98946.79
2022-12-22T19:08:54.473Z,98946.42
2022-12-22T19:11:34.873Z,98940.90
2022-12-22T19:14:02.305Z,98939.49
2022-12-22T19:16:32.389Z,98934.83
2022-12-22T19:19:01.782Z,98937.40
2022-12-22T19:21:29.088Z,98936.52
2022-12-22T19:23:56.395Z,98929.64
2022-12-22T19:26:26.914Z,98927.56
2022-12-22T19:28:57.649Z,98928.39
2022-12-22T19:31:27.788Z,98931.14
2022-12-22T19:33:57.112Z,98933.89
2022-12-22T19:36:26.917Z,98929.21
2022-12-22T19:39:02.590Z,98929.18
2022-12-22T19:41:39.125Z,98931.95
2022-12-22T19:44:07.200Z,98929.73
2022-12-22T19:46:36.781Z,98936.11
2022-12-22T19:49:03.939Z,98933.17
2022-12-22T19:51:31.735Z,98935.75
2022-12-22T19:53:59.279Z,98924.75
2022-12-22T19:56:29.957Z,98924.75
2022-12-22T19:58:58.599Z,98921.64
2022-12-22T20:01:25.871Z,98917.50
2022-12-22T20:03:53.377Z,98915.58
2022-12-22T20:06:20.455Z,98909.36
2022-12-22T20:08:47.716Z,98907.59
2022-12-22T20:11:20.220Z,98905.49
2022-12-22T20:13:48.966Z,98901.34
2022-12-22T20:16:18.269Z,98897.55
2022-12-22T20:18:46.673Z,98897.70
2022-12-22T20:21:17.096Z,98892.02
2022-12-22T20:23:45.935Z,98892.54
2022-12-22T20:26:20.558Z,98891.83
2022-12-22T20:28:49.830Z,98891.64
2022-12-22T20:31:19.156Z,98889.89
2022-12-22T20:33:46.992Z,98895.36
2022-12-22T20:36:24.134Z,98895.88
2022-12-22T20:38:53.476Z,98895.31
2022-12-22T20:41:21.849Z,98894.80
2022-12-22T20:43:49.525Z,98893.59
2022-12-22T20:46:19.593Z,98891.17
2022-12-22T20:48:48.927Z,98890.83
2022-12-22T20:51:18.271Z,98891.84
2022-12-22T20:53:46.200Z,98888.92
2022-12-22T20:56:22.132Z,98889.89
2022-12-22T20:58:49.634Z,98888.35
2022-12-22T21:01:17.249Z,98893.23
2022-12-22T21:03:45.122Z,98894.70
2022-12-22T21:06:26.515Z,98893.94
2022-12-22T21:08:55.018Z,98894.23
2022-12-22T21:11:23.026Z,98896.42
2022-12-22T21:13:50.577Z,98897.61
2022-12-22T21:16:20.360Z,98895.20
2022-12-22T21:18:47.690Z,98896.90
2022-12-22T21:21:15.187Z,98895.55
2022-12-22T21:23:42.646Z,98894.52
2022-12-22T21:26:19.837Z,98892.33
2022-12-22T21:28:47.705Z,98888.23
2022-12-22T21:31:14.959Z,98886.95
2022-12-22T21:33:42.256Z,98891.89
2022-12-22T21:36:20.765Z,98891.70
2022-12-22T21:38:48.647Z,98886.85
2022-12-22T21:41:16.463Z,98886.98
2022-12-22T21:43:43.819Z,98886.41
2022-12-22T21:46:13.983Z,98880.18
2022-12-22T21:48:41.280Z,98879.61
2022-12-22T21:51:08.519Z,98878.69
2022-12-22T21:53:35.589Z,98876.02
2022-12-22T21:56:03.145Z,98871.97
2022-12-22T21:58:30.203Z,98869.69
2022-12-22T22:00:57.246Z,98871.41
2022-12-22T22:03:24.508Z,98873.29
2022-12-22T22:05:52.170Z,98877.42
2022-12-22T22:08:19.694Z,98877.29
2022-12-22T22:10:46.839Z,98874.71
2022-12-22T22:13:16.974Z,98876.05
2022-12-22T22:15:45.066Z,98875.33
2022-12-22T22:18:17.667Z,98874.58
2022-12-22T22:20:45.142Z,98872.28
2022-12-22T22:23:14.741Z,98867.43
2022-12-22T22:25:42.026Z,98868.25
2022-12-22T22:28:10.686Z,98863.84
2022-12-22T22:30:37.855Z,98865.27
2022-12-22T22:33:04.852Z,98862.19
2022-12-22T22:35:32.019Z,98863.45
2022-12-22T22:37:59.299Z,98868.23
2022-12-22T22:40:28.283Z,98871.60
2022-12-22T22:42:56.909Z,98875.23
2022-12-22T22:45:24.462Z,98871.95
2022-12-22T22:47:53.728Z,98872.92
2022-12-22T22:50:21.549Z,98872.02
2022-12-22T22:52:49.459Z,98873.52
2022-12-22T22:55:16.664Z,98869.18
2022-12-22T22:57:43.871Z,98874.75
2022-12-22T23:00:25.179Z,98874.16
2022-12-22T23:02:52.451Z,98868.93
2022-12-22T23:05:23.121Z,98865.02
2022-12-22T23:07:51.190Z,98864.41
2022-12-22T23:10:18.748Z,98859.82
2022-12-22T23:12:46.000Z,98861.71
2022-12-22T23:15:14.024Z,98863.92
2022-12-22T23:17:41.228Z,98863.61
2022-12-22T23:20:10.922Z,98865.55
2022-12-22T23:22:38.491Z,98868.86
2022-12-22T23:25:06.305Z,98870.25
2022-12-22T23:27:34.636Z,98868.67
2022-12-22T23:30:01.996Z,98870.55
2022-12-22T23:32:29.011Z,98875.53
2022-12-22T23:34:56.296Z,98873.64
2022-12-22T23:37:23.344Z,98873.63
2022-12-22T23:39:50.355Z,98870.17
2022-12-22T23:42:17.268Z,98868.31
2022-12-22T23:44:44.279Z,98866.24
2022-12-22T23:47:11.292Z,98866.05
2022-12-22T23:49:38.800Z,98871.36
2022-12-22T23:52:06.269Z,98865.17
2022-12-22T23:54:33.400Z,98866.20
2022-12-22T23:57:00.561Z,98865.13
2022-12-22T23:59:27.693Z,98863.94
